Time;durP1;ratioP1;P1;durP2;ratioP2;P2;SDS_P1;SDS_P2;PMS_P1;PMS_P2;Temp;Humidity;BMP_temperature;BMP_pressure;BME280_temperature;BME280_humidity;BME280_pressure;Samples;Min_cycle;Max_cycle;Signal;HPM_P1;HPM_P2
2022/08/01 00:01:34;;;;;;;3.00;2.40;;;16.80;99.90;;;;;;6065147;23;20418;-91
2022/08/01 00:07:16;;;;;;;3.17;2.50;;;16.70;99.90;;;;;;6101146;23;20438;-90
2022/08/01 00:09:48;;;;;;;3.10;2.87;;;16.80;99.90;;;;;;6111263;23;20412;-91
2022/08/01 00:29:20;;;;;;;3.40;3.20;;;16.40;99.90;;;;;;6103085;23;20454;-91
2022/08/01 00:40:16;;;;;;;3.27;2.97;;;16.60;99.90;;;;;;6111017;23;20461;-92
2022/08/01 00:43:09;;;;;;;2.63;2.43;;;16.60;99.90;;;;;;6094007;23;20557;-92
2022/08/01 00:46:46;;;;;;;2.30;2.10;;;16.40;99.90;;;;;;6006813;23;20392;-91
2022/08/01 01:01:11;;;;;;;3.20;2.90;;;16.50;99.90;;;;;;6112050;23;20326;-90
2022/08/01 01:10:33;;;;;;;2.70;2.40;;;16.50;99.90;;;;;;6109921;23;20381;-91
2022/08/01 01:16:59;;;;;;;3.60;3.30;;;16.50;99.90;;;;;;6119062;23;20363;-91
2022/08/01 01:19:57;;;;;;;3.20;2.83;;;16.70;99.90;;;;;;6087085;23;20391;-90
2022/08/01 01:23:04;;;;;;;2.80;2.60;;;16.80;99.90;;;;;;6091225;23;20372;-91
2022/08/01 01:26:22;;;;;;;3.50;2.90;;;16.50;99.90;;;;;;6091358;23;20441;-91
2022/08/01 01:33:33;;;;;;;3.40;3.10;;;16.40;99.90;;;;;;6091761;23;20417;-93
2022/08/01 01:36:48;;;;;;;2.75;2.55;;;16.40;99.90;;;;;;6098109;23;20434;-92
2022/08/01 01:39:32;;;;;;;3.03;2.80;;;16.50;99.90;;;;;;6078249;23;20236;-91
2022/08/01 01:42:11;;;;;;;3.10;2.87;;;16.00;99.90;;;;;;6049365;23;20388;-92
2022/08/01 01:44:41;;;;;;;2.47;2.30;;;16.00;99.90;;;;;;6087100;23;20473;-89
2022/08/01 01:51:04;;;;;;;2.90;2.70;;;16.30;99.90;;;;;;6117791;23;20434;-89
2022/08/01 02:01:32;;;;;;;2.90;2.70;;;16.50;99.90;;;;;;6090594;23;20412;-90
2022/08/01 02:04:35;;;;;;;3.33;3.13;;;16.50;99.90;;;;;;5975978;23;20677;-91
2022/08/01 02:07:56;;;;;;;3.70;3.07;;;16.60;99.90;;;;;;5948783;24;20381;-90
2022/08/01 02:10:26;;;;;;;3.07;2.83;;;16.70;99.90;;;;;;5965350;24;20435;-90
2022/08/01 02:13:10;;;;;;;3.37;2.93;;;16.70;99.90;;;;;;5967389;24;20426;-90
2022/08/01 02:16:02;;;;;;;3.70;2.87;;;16.60;99.90;;;;;;5967203;23;20918;-90
2022/08/01 02:22:10;;;;;;;3.40;3.10;;;16.40;99.90;;;;;;5966371;24;20407;-90
2022/08/01 02:32:31;;;;;;;2.70;2.50;;;16.40;99.90;;;;;;5944402;24;20733;-91
2022/08/01 02:35:03;;;;;;;4.47;3.30;;;16.30;99.90;;;;;;5936445;24;20377;-91
2022/08/01 02:38:05;;;;;;;4.20;3.90;;;16.50;99.90;;;;;;5973057;24;20588;-91
2022/08/01 02:40:37;;;;;;;3.97;3.38;;;16.30;99.90;;;;;;5991053;24;20179;-91
2022/08/01 03:06:07;;;;;;;3.97;3.35;;;16.30;99.90;;;;;;6084699;23;20180;-92
2022/08/01 03:08:37;;;;;;;5.40;3.90;;;16.30;99.90;;;;;;6042025;23;20188;-92
2022/08/01 03:11:20;;;;;;;4.20;3.80;;;16.50;99.90;;;;;;6069777;23;20392;-92
2022/08/01 03:13:53;;;;;;;4.20;3.65;;;16.20;99.90;;;;;;6043819;23;20376;-92
2022/08/01 03:57:40;;;;;;;4.00;3.60;;;17.90;99.90;;;;;;6115234;23;20380;-91
2022/08/01 04:00:12;;;;;;;6.43;4.80;;;18.40;99.90;;;;;;6068091;23;20392;-91
2022/08/01 04:02:46;;;;;;;5.03;4.53;;;18.40;99.90;;;;;;6098235;23;20456;-92
2022/08/01 04:18:44;;;;;;;4.70;4.30;;;18.20;99.90;;;;;;6058415;23;20454;-90
2022/08/01 04:57:02;;;;;;;7.40;6.20;;;18.80;99.90;;;;;;6026984;23;20578;-79
2022/08/01 04:59:39;;;;;;;5.90;5.47;;;18.60;99.90;;;;;;6106168;23;20362;-84
2022/08/01 05:02:09;;;;;;;7.30;5.90;;;18.80;99.90;;;;;;6075306;23;30422;-81
2022/08/01 05:04:39;;;;;;;5.30;4.80;;;19.00;99.90;;;;;;6090008;23;20479;-82
2022/08/01 05:07:07;;;;;;;5.67;5.17;;;19.20;99.90;;;;;;6066107;23;20411;-83
2022/08/01 05:09:36;;;;;;;6.23;5.73;;;19.40;99.90;;;;;;6065868;23;20511;-82
2022/08/01 05:12:05;;;;;;;6.20;5.70;;;19.70;99.90;;;;;;6080294;23;20749;-80
2022/08/01 05:14:33;;;;;;;6.10;5.60;;;19.70;99.90;;;;;;6078065;23;20379;-82
2022/08/01 05:17:03;;;;;;;6.73;5.33;;;19.50;99.90;;;;;;6080048;23;20378;-81
2022/08/01 05:19:33;;;;;;;7.03;5.43;;;19.60;99.90;;;;;;6079096;23;20457;-84
2022/08/01 05:22:04;;;;;;;5.70;5.20;;;19.60;99.90;;;;;;6078312;23;20437;-83
2022/08/01 05:24:32;;;;;;;6.07;5.60;;;19.40;99.90;;;;;;6078661;23;20485;-82
2022/08/01 05:27:01;;;;;;;5.77;5.30;;;19.60;99.90;;;;;;6056945;23;20398;-81
2022/08/01 05:29:29;;;;;;;6.57;5.87;;;19.80;99.90;;;;;;6081017;23;20427;-79
2022/08/01 05:31:57;;;;;;;6.20;5.60;;;19.80;99.90;;;;;;6078960;23;20813;-80
2022/08/01 05:34:25;;;;;;;6.40;5.37;;;19.90;99.90;;;;;;6071728;23;20406;-81
2022/08/01 05:36:52;;;;;;;6.23;5.63;;;20.10;99.90;;;;;;6071701;23;20936;-80
2022/08/01 05:39:23;;;;;;;4.97;4.57;;;20.30;99.90;;;;;;6071756;23;20433;-80
2022/08/01 05:41:50;;;;;;;7.83;6.27;;;20.10;99.90;;;;;;6070493;23;20753;-80
2022/08/01 05:44:17;;;;;;;5.83;5.33;;;20.30;99.90;;;;;;6069783;23;20379;-81
2022/08/01 05:46:43;;;;;;;7.07;5.00;;;20.60;99.90;;;;;;6070375;23;20382;-80
2022/08/01 05:49:10;;;;;;;4.77;4.30;;;20.80;99.90;;;;;;6043809;23;20463;-81
2022/08/01 05:51:37;;;;;;;6.53;5.93;;;21.10;99.90;;;;;;6044272;23;20432;-81
2022/08/01 05:54:04;;;;;;;6.67;6.07;;;21.10;99.90;;;;;;6071549;23;20413;-82
2022/08/01 05:56:31;;;;;;;7.57;6.30;;;21.30;99.90;;;;;;6070136;23;20587;-80
2022/08/01 05:58:59;;;;;;;7.60;5.80;;;21.40;99.90;;;;;;6045391;23;20420;-81
2022/08/01 06:01:25;;;;;;;7.27;6.10;;;21.30;99.90;;;;;;6071011;23;20403;-80
2022/08/01 06:03:54;;;;;;;7.87;5.47;;;21.50;99.90;;;;;;6044478;23;20440;-82
2022/08/01 06:06:21;;;;;;;5.83;4.70;;;21.70;99.90;;;;;;6070112;23;20747;-80
2022/08/01 06:08:51;;;;;;;5.87;5.37;;;21.90;99.90;;;;;;6069707;23;20683;-80
2022/08/01 06:11:18;;;;;;;5.60;5.20;;;22.10;99.90;;;;;;6069477;23;20402;-82
2022/08/01 06:13:46;;;;;;;7.10;6.40;;;22.40;99.90;;;;;;6070132;23;20377;-81
2022/08/01 06:16:14;;;;;;;5.90;5.33;;;22.60;99.90;;;;;;6044216;23;20380;-80
2022/08/01 06:18:41;;;;;;;6.07;5.50;;;22.80;99.90;;;;;;6076258;23;20628;-83
2022/08/01 06:21:08;;;;;;;6.10;5.50;;;23.00;99.90;;;;;;6070152;23;20396;-80
2022/08/01 06:23:35;;;;;;;8.93;8.13;;;23.20;99.90;;;;;;6069563;23;20408;-81
2022/08/01 06:26:02;;;;;;;10.57;8.40;;;23.70;99.90;;;;;;6072382;23;20377;-82
2022/08/01 06:28:30;;;;;;;6.17;5.67;;;23.90;99.90;;;;;;6068799;23;20381;-81
2022/08/01 06:30:58;;;;;;;7.33;6.63;;;24.20;99.90;;;;;;6044329;23;20904;-81
2022/08/01 06:33:26;;;;;;;6.60;4.90;;;24.40;99.90;;;;;;6069901;23;20451;-80
2022/08/01 06:35:54;;;;;;;7.27;6.53;;;24.80;99.90;;;;;;6070650;23;20394;-81
2022/08/01 06:38:20;;;;;;;6.77;5.20;;;25.00;99.90;;;;;;6069628;23;20404;-81
2022/08/01 06:40:49;;;;;;;4.93;4.07;;;24.70;99.90;;;;;;6044425;23;20456;-80
2022/08/01 06:43:16;;;;;;;4.17;3.87;;;24.70;99.90;;;;;;6069986;23;20412;-81
2022/08/01 06:45:43;;;;;;;5.63;4.30;;;24.60;99.90;;;;;;6068250;23;20390;-81
2022/08/01 06:48:10;;;;;;;6.40;3.90;;;24.40;99.90;;;;;;6069639;23;20406;-81
2022/08/01 06:50:37;;;;;;;3.80;3.60;;;24.20;99.90;;;;;;6044600;23;20442;-81
2022/08/01 06:53:04;;;;;;;12.00;9.87;;;24.40;99.90;;;;;;6071471;23;20408;-82
2022/08/01 06:55:31;;;;;;;7.83;6.50;;;24.80;99.90;;;;;;6072635;23;20376;-81
2022/08/01 06:57:58;;;;;;;7.93;5.90;;;24.90;99.90;;;;;;6081274;23;20449;-82
2022/08/01 07:00:26;;;;;;;4.97;4.47;;;24.90;99.90;;;;;;6078554;23;20628;-80
2022/08/01 07:02:56;;;;;;;4.20;3.90;;;25.20;99.90;;;;;;6074874;23;20671;-82
2022/08/01 07:05:23;;;;;;;4.50;4.10;;;25.50;99.90;;;;;;6046232;23;20403;-80
2022/08/01 07:07:50;;;;;;;4.40;3.90;;;25.80;99.90;;;;;;6071548;23;20369;-81
2022/08/01 07:10:18;;;;;;;6.57;4.20;;;26.40;99.90;;;;;;6068225;23;20474;-81
2022/08/01 07:12:44;;;;;;;4.20;3.80;;;27.10;99.90;;;;;;6070526;23;20383;-81
2022/08/01 07:15:12;;;;;;;5.30;3.50;;;27.50;99.90;;;;;;6070258;23;20376;-81
2022/08/01 07:17:41;;;;;;;4.93;4.53;;;27.70;99.90;;;;;;6069850;23;20430;-84
2022/08/01 07:20:10;;;;;;;5.13;4.00;;;27.80;99.90;;;;;;6070023;23;20380;-81
2022/08/01 07:22:37;;;;;;;4.00;3.67;;;27.60;99.90;;;;;;6070292;23;20888;-81
2022/08/01 07:25:05;;;;;;;7.50;5.90;;;27.70;99.90;;;;;;6070437;23;20406;-82
2022/08/01 07:27:38;;;;;;;22.73;10.17;;;27.60;99.90;;;;;;6070718;23;20416;-85
2022/08/01 07:30:06;;;;;;;3.77;3.40;;;27.30;99.90;;;;;;6070295;23;20983;-80
2022/08/01 07:32:34;;;;;;;6.27;5.50;;;27.30;99.90;;;;;;6072161;23;20611;-80
2022/08/01 07:35:02;;;;;;;4.37;3.23;;;27.30;99.90;;;;;;6073461;23;20489;-79
2022/08/01 07:37:29;;;;;;;4.77;3.53;;;27.50;99.90;;;;;;6074339;23;20404;-81
2022/08/01 07:40:18;;;;;;;5.63;4.00;;;27.40;99.90;;;;;;6072795;23;20409;-80
2022/08/01 07:42:46;;;;;;;5.27;3.70;;;27.50;99.90;;;;;;6074775;23;20388;-80
2022/08/01 07:45:41;;;;;;;3.40;3.10;;;27.50;99.90;;;;;;6071243;23;20517;-83
2022/08/01 07:48:14;;;;;;;4.90;3.63;;;27.30;99.90;;;;;;6046734;23;20388;-81
2022/08/01 07:50:43;;;;;;;3.33;3.10;;;27.00;99.90;;;;;;6073705;23;20615;-80
2022/08/01 07:53:10;;;;;;;3.80;3.33;;;27.10;99.90;;;;;;6073536;23;20483;-82
2022/08/01 07:55:37;;;;;;;3.17;2.97;;;27.00;99.90;;;;;;6071287;23;20415;-82
2022/08/01 07:58:04;;;;;;;3.90;3.67;;;27.20;99.90;;;;;;6070434;23;20422;-81
2022/08/01 08:00:31;;;;;;;3.90;3.60;;;28.00;99.90;;;;;;6072518;23;20419;-83
2022/08/01 08:02:59;;;;;;;3.53;3.23;;;28.00;99.90;;;;;;6070631;23;20403;-82
2022/08/01 08:05:27;;;;;;;3.63;3.33;;;27.80;99.90;;;;;;6070010;23;20417;-83
2022/08/01 08:08:17;;;;;;;3.40;3.20;;;27.80;99.90;;;;;;6070263;23;20400;-80
2022/08/01 08:10:47;;;;;;;3.87;3.53;;;27.70;99.90;;;;;;6070177;23;20813;-81
2022/08/01 08:13:14;;;;;;;3.07;2.87;;;27.40;99.90;;;;;;6069727;23;20379;-81
2022/08/01 08:15:41;;;;;;;6.13;3.47;;;27.90;99.90;;;;;;6069502;23;20404;-81
2022/08/01 08:18:13;;;;;;;3.23;2.70;;;27.80;99.90;;;;;;6070094;23;20720;-79
2022/08/01 08:20:40;;;;;;;4.53;4.13;;;28.70;99.90;;;;;;6068964;23;20433;-80
2022/08/01 08:26:07;;;;;;;2.80;2.60;;;29.90;99.90;;;;;;6021142;23;20465;-81
2022/08/01 08:28:34;;;;;;;3.77;3.47;;;31.80;99.90;;;;;;6071252;23;20376;-81
2022/08/01 08:31:01;;;;;;;3.20;2.90;;;31.70;99.90;;;;;;6072501;23;20437;-80
2022/08/01 08:33:28;;;;;;;3.50;3.30;;;31.10;99.90;;;;;;6071646;23;20436;-81
2022/08/01 08:35:55;;;;;;;5.27;3.33;;;30.70;99.90;;;;;;6072915;23;20432;-81
2022/08/01 08:38:21;;;;;;;4.00;3.70;;;30.40;99.90;;;;;;6072129;23;20406;-82
2022/08/01 08:40:56;;;;;;;4.00;3.70;;;29.60;99.90;;;;;;6048503;23;20390;-81
2022/08/01 08:43:25;;;;;;;4.10;3.90;;;28.50;99.90;;;;;;6046293;23;20480;-82
2022/08/01 08:45:53;;;;;;;5.40;3.73;;;27.70;99.90;;;;;;6054617;23;20426;-80
2022/08/01 08:48:26;;;;;;;7.53;4.20;;;27.10;99.90;;;;;;6052874;23;20362;-80
2022/08/01 08:50:55;;;;;;;3.50;3.20;;;26.80;99.90;;;;;;6071315;23;20741;-80
2022/08/01 08:53:22;;;;;;;4.00;3.70;;;26.80;99.90;;;;;;6070758;23;20406;-80
2022/08/01 08:55:50;;;;;;;4.03;3.67;;;26.40;99.90;;;;;;6069521;23;20470;-80
2022/08/01 08:58:25;;;;;;;4.50;3.67;;;26.50;99.90;;;;;;6070383;23;20716;-81
2022/08/01 09:00:57;;;;;;;3.70;3.40;;;26.80;99.90;;;;;;6071101;23;20390;-81
2022/08/01 09:03:24;;;;;;;4.90;3.33;;;26.90;99.90;;;;;;6073242;23;20402;-82
2022/08/01 09:05:51;;;;;;;4.13;3.73;;;26.90;99.90;;;;;;6071445;23;20409;-83
2022/08/01 09:08:18;;;;;;;3.60;3.30;;;26.90;99.90;;;;;;6069574;23;20757;-82
2022/08/01 09:10:45;;;;;;;6.27;3.90;;;27.10;99.90;;;;;;6071993;23;20555;-85
2022/08/01 09:13:14;;;;;;;3.40;3.10;;;27.90;99.90;;;;;;6074574;23;20567;-82
2022/08/01 09:15:53;;;;;;;5.50;4.97;;;29.30;99.90;;;;;;6048031;23;20837;-81
2022/08/01 09:18:27;;;;;;;3.33;3.13;;;29.20;99.90;;;;;;6072458;23;20498;-82
2022/08/01 09:21:10;;;;;;;3.70;3.30;;;29.00;99.90;;;;;;6072115;23;20405;-84
2022/08/01 09:23:39;;;;;;;4.07;3.77;;;28.50;99.90;;;;;;6072429;23;20419;-84
2022/08/01 09:26:29;;;;;;;4.60;4.20;;;28.00;99.90;;;;;;6072851;23;20409;-81
2022/08/01 09:28:59;;;;;;;3.50;3.20;;;28.40;99.90;;;;;;6075268;23;20814;-79
2022/08/01 09:31:29;;;;;;;3.87;3.57;;;28.70;99.90;;;;;;6072109;23;20471;-81
2022/08/01 09:34:04;;;;;;;4.23;3.40;;;28.80;99.90;;;;;;6050496;23;20588;-83
2022/08/01 09:37:01;;;;;;;5.00;4.20;;;29.40;99.90;;;;;;6071644;23;20715;-83
2022/08/01 09:39:36;;;;;;;4.23;3.30;;;29.90;99.90;;;;;;6029450;23;20412;-82
2022/08/01 09:42:25;;;;;;;4.13;3.77;;;30.20;99.90;;;;;;6072379;23;20386;-82
2022/08/01 09:44:55;;;;;;;3.87;3.57;;;29.90;99.90;;;;;;6073002;23;20430;-82
2022/08/01 09:47:36;;;;;;;9.50;3.70;;;29.70;99.90;;;;;;6046227;23;20410;-83
2022/08/01 09:50:05;;;;;;;3.70;3.40;;;29.50;99.90;;;;;;6072401;23;20641;-82
2022/08/01 09:52:36;;;;;;;4.53;3.53;;;29.70;99.90;;;;;;6070167;23;20392;-82
2022/08/01 09:55:07;;;;;;;3.70;3.40;;;30.20;99.90;;;;;;6072079;23;20406;-81
2022/08/01 09:57:34;;;;;;;3.87;3.53;;;30.40;99.90;;;;;;6046292;23;20481;-81
2022/08/01 10:00:03;;;;;;;3.57;3.27;;;30.50;99.90;;;;;;6074136;23;20398;-83
2022/08/01 10:02:36;;;;;;;3.87;3.60;;;30.30;99.90;;;;;;6071640;23;20744;-81
2022/08/01 10:05:09;;;;;;;3.57;3.27;;;30.00;99.90;;;;;;6071378;23;20402;-82
2022/08/01 10:07:55;;;;;;;4.20;3.57;;;29.50;99.90;;;;;;6071757;23;20393;-81
2022/08/01 10:10:24;;;;;;;5.30;4.50;;;29.60;99.90;;;;;;6071491;23;20809;-82
2022/08/01 10:12:57;;;;;;;3.20;2.90;;;29.50;99.90;;;;;;6071469;23;20374;-84
2022/08/01 10:15:26;;;;;;;3.30;3.00;;;29.20;99.90;;;;;;6049983;23;20465;-82
2022/08/01 10:18:06;;;;;;;3.57;3.27;;;29.10;99.90;;;;;;6083952;23;20541;-84
2022/08/01 10:20:51;;;;;;;3.40;3.10;;;29.40;99.90;;;;;;6083782;23;20383;-81
2022/08/01 10:23:23;;;;;;;2.53;2.33;;;29.50;99.90;;;;;;6083414;23;20418;-82
2022/08/01 10:26:09;;;;;;;2.30;2.20;;;29.50;99.90;;;;;;6084116;23;20390;-82
2022/08/01 10:28:37;;;;;;;3.03;2.73;;;29.30;99.90;;;;;;6083231;23;20439;-80
2022/08/01 10:31:07;;;;;;;4.73;2.80;;;29.10;99.90;;;;;;6082974;23;20437;-83
2022/08/01 10:33:41;;;;;;;3.33;2.80;;;28.90;99.90;;;;;;6082788;23;20402;-80
2022/08/01 10:36:22;;;;;;;3.20;3.00;;;28.90;99.90;;;;;;6059207;23;20511;-80
2022/08/01 10:38:53;;;;;;;3.43;3.13;;;29.00;99.90;;;;;;6080046;23;20485;-81
2022/08/01 10:41:21;;;;;;;3.57;3.30;;;29.30;99.90;;;;;;6072034;23;20756;-80
2022/08/01 10:43:48;;;;;;;35.57;30.90;;;29.80;99.90;;;;;;6073015;23;20473;-81
2022/08/01 10:46:18;;;;;;;5.63;3.93;;;30.50;99.90;;;;;;6072216;23;20474;-81
2022/08/01 10:48:55;;;;;;;6.67;3.67;;;30.50;99.90;;;;;;6045606;23;20402;-82
2022/08/01 10:51:23;;;;;;;3.57;3.27;;;32.00;99.90;;;;;;6045808;23;20455;-81
2022/08/01 10:54:12;;;;;;;4.60;2.93;;;30.70;99.90;;;;;;6070776;23;20445;-81
2022/08/01 10:56:47;;;;;;;3.53;3.33;;;30.90;99.90;;;;;;6075595;23;20403;-82
2022/08/01 10:59:21;;;;;;;4.13;3.23;;;30.50;99.90;;;;;;6070180;23;20386;-81
2022/08/01 11:02:08;;;;;;;4.10;3.80;;;30.10;99.90;;;;;;6068400;23;20438;-80
2022/08/01 11:04:54;;;;;;;4.20;3.80;;;29.90;99.90;;;;;;6043411;23;20485;-80
2022/08/01 11:07:48;;;;;;;4.27;3.97;;;30.10;99.90;;;;;;6069733;23;20410;-81
2022/08/01 11:10:45;;;;;;;4.07;3.70;;;30.50;99.90;;;;;;6070618;23;20410;-81
2022/08/01 11:13:12;;;;;;;4.00;3.60;;;30.00;99.90;;;;;;6070384;23;20386;-81
2022/08/01 11:15:41;;;;;;;4.40;3.70;;;29.50;99.90;;;;;;6070172;23;20405;-83
2022/08/01 11:18:51;;;;;;;4.43;4.13;;;29.40;99.90;;;;;;6068885;23;20386;-81
2022/08/01 11:21:19;;;;;;;3.83;3.63;;;29.40;99.90;;;;;;6040341;23;20599;-81
2022/08/01 11:24:05;;;;;;;4.23;3.90;;;29.60;99.90;;;;;;6069647;23;20405;-83
2022/08/01 11:26:33;;;;;;;5.10;4.60;;;30.00;99.90;;;;;;6070763;23;20763;-79
2022/08/01 11:29:15;;;;;;;3.10;2.90;;;30.20;99.90;;;;;;6070997;23;20434;-80
2022/08/01 11:31:47;;;;;;;3.40;3.20;;;;;;;;;;6069546;23;20434;-81
2022/08/01 11:34:15;;;;;;;3.60;3.33;;;29.80;99.90;;;;;;6069587;23;20510;-80
2022/08/01 11:36:42;;;;;;;3.93;3.53;;;29.90;99.90;;;;;;6069743;23;20482;-80
2022/08/01 11:39:26;;;;;;;3.53;3.33;;;30.10;99.90;;;;;;6067564;23;20457;-81
2022/08/01 11:41:54;;;;;;;3.63;3.33;;;30.40;99.90;;;;;;6070798;23;20519;-82
2022/08/01 11:44:27;;;;;;;6.93;4.53;;;30.40;99.90;;;;;;6070581;23;20400;-80
2022/08/01 11:47:07;;;;;;;3.97;3.13;;;30.60;99.90;;;;;;6048040;23;20386;-80
2022/08/01 11:49:47;;;;;;;3.63;3.27;;;30.70;99.90;;;;;;6073314;23;20720;-85
2022/08/01 11:52:15;;;;;;;4.23;3.23;;;30.60;99.90;;;;;;6071422;23;20433;-82
2022/08/01 11:54:49;;;;;;;4.03;3.33;;;30.80;99.90;;;;;;6071979;23;20472;-84
2022/08/01 11:57:22;;;;;;;3.67;3.33;;;31.00;99.90;;;;;;6072766;23;20416;-83
2022/08/01 12:00:23;;;;;;;6.27;3.90;;;31.10;99.90;;;;;;6071413;23;20440;-83
2022/08/01 12:03:06;;;;;;;4.03;3.30;;;30.50;99.90;;;;;;6049452;23;20423;-83
2022/08/01 12:05:36;;;;;;;4.67;3.20;;;30.60;99.90;;;;;;6071046;23;20388;-84
2022/08/01 12:08:08;;;;;;;3.67;3.40;;;30.30;99.90;;;;;;6049312;23;20390;-80
2022/08/01 12:10:36;;;;;;;3.13;2.93;;;30.00;99.90;;;;;;6087341;23;20417;-85
2022/08/01 12:13:17;;;;;;;4.13;3.33;;;30.20;99.90;;;;;;6074618;23;20397;-82
2022/08/01 12:15:45;;;;;;;7.00;4.93;;;30.30;99.90;;;;;;6070146;23;20644;-81
2022/08/01 12:18:13;;;;;;;4.10;3.80;;;30.50;99.90;;;;;;6070853;23;20410;-80
2022/08/01 12:20:44;;;;;;;3.23;3.03;;;30.60;99.90;;;;;;6072879;23;20461;-81
2022/08/01 12:23:27;;;;;;;3.30;3.10;;;;;;;;;;6072507;23;20386;-82
2022/08/01 12:25:55;;;;;;;3.13;2.80;;;30.70;99.90;;;;;;6047955;23;20398;-82
2022/08/01 12:28:26;;;;;;;3.97;3.20;;;30.50;99.90;;;;;;6073556;23;20386;-82
2022/08/01 12:30:53;;;;;;;4.20;3.00;;;;;;;;;;6071547;23;20442;-82
2022/08/01 12:33:21;;;;;;;3.30;3.10;;;29.90;99.90;;;;;;6070696;23;20463;-82
2022/08/01 12:35:48;;;;;;;4.03;3.70;;;;;;;;;;6071774;23;20402;-82
2022/08/01 12:38:18;;;;;;;4.17;3.63;;;29.30;99.90;;;;;;6071216;23;20401;-80
2022/08/01 12:40:47;;;;;;;3.57;3.27;;;29.30;99.90;;;;;;6070362;23;20873;-82
2022/08/01 12:43:24;;;;;;;8.70;7.93;;;29.70;99.90;;;;;;6074188;23;20392;-81
2022/08/01 12:45:59;;;;;;;5.33;4.90;;;29.60;99.90;;;;;;6070680;23;20719;-81
2022/08/01 12:48:30;;;;;;;3.90;3.60;;;29.80;99.90;;;;;;6071764;23;20625;-82
2022/08/01 12:51:00;;;;;;;3.57;3.37;;;29.50;99.90;;;;;;6071281;23;20417;-86
2022/08/01 12:53:30;;;;;;;3.63;3.33;;;29.10;99.90;;;;;;6071238;23;20475;-84
2022/08/01 12:56:09;;;;;;;3.63;3.33;;;28.70;99.90;;;;;;6073703;23;20386;-81
2022/08/01 12:58:36;;;;;;;4.13;3.00;;;28.20;99.90;;;;;;6043811;23;20489;-83
2022/08/01 13:01:09;;;;;;;3.00;2.80;;;28.10;99.90;;;;;;6070804;23;20414;-82
2022/08/01 13:03:37;;;;;;;3.60;3.00;;;28.30;99.90;;;;;;6073391;23;20458;-81
2022/08/01 13:06:14;;;;;;;3.40;3.10;;;28.50;99.90;;;;;;6074719;23;20408;-79
2022/08/01 13:08:43;;;;;;;4.70;4.27;;;29.00;99.90;;;;;;6076836;23;20438;-81
2022/08/01 13:11:15;;;;;;;3.83;3.10;;;29.30;99.90;;;;;;6048622;23;20518;-81
2022/08/01 13:13:49;;;;;;;3.50;3.20;;;29.30;99.90;;;;;;6072431;23;20387;-82
2022/08/01 13:16:18;;;;;;;3.50;3.23;;;29.40;99.90;;;;;;6075109;23;20410;-79
2022/08/01 13:19:05;;;;;;;3.67;3.10;;;29.20;99.90;;;;;;6073802;23;20383;-80
2022/08/01 13:21:33;;;;;;;4.10;3.80;;;29.20;99.90;;;;;;6068965;23;20413;-80
2022/08/01 13:24:28;;;;;;;3.43;3.23;;;29.20;99.90;;;;;;6068225;23;20382;-81
2022/08/01 13:26:59;;;;;;;4.10;3.80;;;28.90;99.90;;;;;;6070293;23;20393;-81
2022/08/01 13:29:42;;;;;;;4.10;3.80;;;28.70;99.90;;;;;;6070297;23;20475;-80
2022/08/01 13:32:13;;;;;;;3.80;3.50;;;28.60;99.90;;;;;;6070135;23;20441;-81
2022/08/01 13:35:04;;;;;;;3.27;3.07;;;28.70;99.90;;;;;;6069234;23;20390;-81
2022/08/01 13:37:33;;;;;;;4.30;4.00;;;29.00;99.90;;;;;;6069805;23;20484;-81
2022/08/01 13:40:05;;;;;;;4.60;3.40;;;29.20;99.90;;;;;;6070674;23;20453;-82
2022/08/01 13:42:32;;;;;;;3.50;3.30;;;29.20;99.90;;;;;;6070158;23;20405;-79
2022/08/01 13:45:07;;;;;;;3.67;3.47;;;29.10;99.90;;;;;;6070085;23;20723;-80
2022/08/01 13:47:40;;;;;;;3.37;3.07;;;28.90;99.90;;;;;;6084288;23;20378;-81
2022/08/01 13:50:29;;;;;;;2.73;2.53;;;28.80;99.90;;;;;;6077567;23;20632;-81
2022/08/01 13:52:56;;;;;;;2.77;2.57;;;28.60;99.90;;;;;;6045632;23;20438;-81
2022/08/01 13:55:23;;;;;;;2.23;2.03;;;28.30;99.90;;;;;;6070894;23;20486;-80
2022/08/01 13:57:51;;;;;;;1.93;1.83;;;28.20;99.90;;;;;;6080241;23;20426;-81
2022/08/01 14:00:18;;;;;;;2.43;1.90;;;28.20;99.90;;;;;;6069263;23;20595;-82
2022/08/01 14:02:46;;;;;;;3.03;2.23;;;28.30;99.90;;;;;;6070990;23;20449;-82
2022/08/01 14:05:13;;;;;;;2.63;2.43;;;28.40;99.90;;;;;;6045191;23;20441;-80
2022/08/01 14:07:40;;;;;;;2.07;1.97;;;28.20;99.90;;;;;;6070659;23;20410;-81
2022/08/01 14:10:07;;;;;;;2.50;2.40;;;27.90;99.90;;;;;;6069503;23;20407;-80
2022/08/01 14:12:46;;;;;;;2.70;2.50;;;27.70;99.90;;;;;;6048124;23;20505;-81
2022/08/01 14:15:13;;;;;;;3.13;2.80;;;27.40;99.90;;;;;;6070810;23;20401;-84
2022/08/01 14:18:06;;;;;;;3.37;3.17;;;27.00;99.90;;;;;;6071856;23;20451;-79
2022/08/01 14:20:37;;;;;;;3.13;2.93;;;26.80;99.90;;;;;;6043949;23;20419;-79
2022/08/01 14:23:04;;;;;;;3.80;3.50;;;26.80;99.90;;;;;;6044517;23;20410;-81
2022/08/01 14:25:37;;;;;;;3.20;3.00;;;26.80;99.90;;;;;;6069988;23;20376;-81
2022/08/01 14:28:27;;;;;;;2.90;2.60;;;26.80;99.90;;;;;;6069815;23;20426;-81
2022/08/01 14:30:59;;;;;;;2.70;2.50;;;26.90;99.90;;;;;;6069111;23;20402;-81
2022/08/01 14:33:26;;;;;;;3.33;3.03;;;26.80;99.90;;;;;;6068685;23;20414;-83
2022/08/01 14:35:53;;;;;;;2.80;2.60;;;26.90;99.90;;;;;;6045567;23;20395;-80
2022/08/01 14:38:40;;;;;;;3.10;2.90;;;26.90;99.90;;;;;;6069298;23;20402;-82
2022/08/01 14:41:08;;;;;;;3.10;2.90;;;27.00;99.90;;;;;;6068624;23;20589;-82
2022/08/01 14:43:35;;;;;;;2.97;2.77;;;27.20;99.90;;;;;;6069170;23;20403;-79
2022/08/01 14:46:03;;;;;;;3.30;2.93;;;27.20;99.90;;;;;;6069746;23;20410;-80
2022/08/01 14:48:30;;;;;;;6.03;2.50;;;27.30;99.90;;;;;;6069357;23;20407;-80
2022/08/01 14:51:02;;;;;;;3.30;3.00;;;27.40;99.90;;;;;;6071613;23;20415;-79
2022/08/01 14:53:29;;;;;;;3.70;3.40;;;27.40;99.90;;;;;;6073334;23;20363;-79
2022/08/01 14:55:57;;;;;;;3.07;2.77;;;27.40;99.90;;;;;;6073604;23;20404;-82
2022/08/01 14:58:26;;;;;;;2.90;2.53;;;27.20;99.90;;;;;;6072335;23;20858;-81
2022/08/01 15:00:54;;;;;;;3.07;2.87;;;27.20;99.90;;;;;;6072645;23;20400;-82
2022/08/01 15:03:24;;;;;;;2.50;2.30;;;27.30;99.90;;;;;;6073813;23;20580;-81
2022/08/01 15:05:51;;;;;;;2.53;2.33;;;27.20;99.90;;;;;;6068587;23;20404;-80
2022/08/01 15:08:18;;;;;;;2.30;2.20;;;27.30;99.90;;;;;;6070737;23;20404;-82
2022/08/01 15:10:45;;;;;;;3.17;2.30;;;27.40;99.90;;;;;;6071467;23;20784;-83
2022/08/01 15:13:19;;;;;;;2.33;2.13;;;27.70;99.90;;;;;;6070739;23;20435;-84
2022/08/01 15:15:46;;;;;;;2.00;1.90;;;27.80;99.90;;;;;;6069080;23;20737;-81
2022/08/01 15:18:14;;;;;;;3.07;2.87;;;27.70;99.90;;;;;;6044604;23;20419;-81
2022/08/01 15:20:41;;;;;;;2.67;2.47;;;27.50;99.90;;;;;;6069030;23;20400;-82
2022/08/01 15:23:09;;;;;;;2.20;2.00;;;27.40;99.90;;;;;;6070130;23;20498;-81
2022/08/01 15:25:35;;;;;;;5.63;3.87;;;27.00;99.90;;;;;;6044403;23;20382;-82
2022/08/01 15:28:09;;;;;;;2.27;2.07;;;26.90;99.90;;;;;;6047256;23;20771;-82
2022/08/01 15:30:36;;;;;;;3.17;2.70;;;26.80;99.90;;;;;;6079011;23;20415;-81
2022/08/01 15:33:03;;;;;;;3.63;2.90;;;27.00;99.90;;;;;;6037114;23;20546;-81
2022/08/01 15:35:30;;;;;;;2.73;2.53;;;26.90;99.90;;;;;;6086698;23;20486;-83
2022/08/01 15:37:57;;;;;;;2.37;2.17;;;26.80;99.90;;;;;;6086935;23;20380;-83
2022/08/01 15:40:24;;;;;;;3.90;2.60;;;26.60;99.90;;;;;;6085889;23;20425;-82
2022/08/01 15:42:52;;;;;;;2.40;2.20;;;26.30;99.90;;;;;;6077950;23;20412;-84
2022/08/01 15:45:20;;;;;;;1.77;1.67;;;26.10;99.90;;;;;;6076235;23;20418;-81
2022/08/01 15:48:07;;;;;;;2.27;2.10;;;26.00;99.90;;;;;;6076023;23;20461;-81
2022/08/01 15:50:38;;;;;;;4.27;2.67;;;25.70;99.90;;;;;;6074575;23;20891;-82
2022/08/01 15:53:06;;;;;;;2.07;1.93;;;25.20;99.90;;;;;;6050021;23;20441;-81
2022/08/01 15:55:36;;;;;;;2.33;2.13;;;25.00;99.90;;;;;;6072997;23;20559;-81
2022/08/01 15:58:05;;;;;;;1.77;1.67;;;24.90;99.90;;;;;;6072694;23;20418;-81
2022/08/01 16:00:33;;;;;;;1.93;1.80;;;24.70;99.90;;;;;;6071444;23;20414;-85
2022/08/01 16:03:06;;;;;;;3.40;1.37;;;24.60;99.90;;;;;;6048659;23;20414;-81
2022/08/01 16:05:35;;;;;;;1.90;1.60;;;24.50;99.90;;;;;;6072548;23;20461;-82
2022/08/01 16:08:13;;;;;;;1.00;1.00;;;24.40;99.90;;;;;;6072544;23;20422;-81
2022/08/01 16:10:40;;;;;;;1.40;1.30;;;24.30;99.90;;;;;;6073149;23;20376;-81
2022/08/01 16:13:07;;;;;;;1.40;1.30;;;24.40;99.90;;;;;;6073061;23;20650;-82
2022/08/01 16:15:35;;;;;;;1.63;1.37;;;24.50;99.90;;;;;;6073370;23;20475;-81
2022/08/01 16:18:08;;;;;;;1.57;1.40;;;24.60;99.90;;;;;;6052715;23;20406;-83
2022/08/01 16:20:36;;;;;;;1.20;1.10;;;24.60;99.90;;;;;;6047387;23;20420;-82
2022/08/01 16:23:10;;;;;;;1.50;1.40;;;24.50;99.90;;;;;;6073526;23;20378;-83
2022/08/01 16:25:38;;;;;;;1.10;1.00;;;24.60;99.90;;;;;;6078385;23;20376;-83
2022/08/01 16:28:05;;;;;;;1.50;1.40;;;24.30;99.90;;;;;;6081168;23;20492;-83
2022/08/01 16:30:32;;;;;;;1.53;1.43;;;24.20;99.90;;;;;;6074958;23;20606;-81
2022/08/01 16:32:59;;;;;;;2.60;1.90;;;24.10;99.90;;;;;;6072095;23;20494;-82